Time;durP1;ratioP1;P1;durP2;ratioP2;P2;SDS_P1;SDS_P2;PMS_P1;PMS_P2;Temp;Humidity;BMP_temperature;BMP_pressure;BME280_temperature;BME280_humidity;BME280_pressure;Samples;Min_cycle;Max_cycle;Signal;HPM_P1;HPM_P2
2023/12/08 00:01:38;;;;;;;40.37;16.47;;;;;;;;;;5077692;28;20217;-78
2023/12/08 00:04:04;;;;;;;39.00;15.27;;;;;;;;;;5074748;28;20293;-75
2023/12/08 00:06:31;;;;;;;33.87;13.97;;;;;;;;;;5061373;28;20714;-76
2023/12/08 00:08:57;;;;;;;33.70;14.57;;;;;;;;;;5071586;28;20198;-75
2023/12/08 00:11:23;;;;;;;36.70;14.30;;;;;;;;;;5076223;28;20207;-77
2023/12/08 00:13:49;;;;;;;33.53;14.73;;;;;;;;;;5076533;28;20210;-75
2023/12/08 00:16:15;;;;;;;32.43;14.47;;;;;;;;;;5071609;28;20594;-77
2023/12/08 00:18:41;;;;;;;35.57;15.87;;;;;;;;;;5076540;28;20677;-77
2023/12/08 00:21:07;;;;;;;35.77;14.93;;;;;;;;;;5073875;28;20206;-76
2023/12/08 00:23:34;;;;;;;39.97;15.23;;;;;;;;;;5075126;28;20263;-75
2023/12/08 00:26:00;;;;;;;37.53;15.83;;;;;;;;;;5082486;28;20219;-76
2023/12/08 00:28:26;;;;;;;39.60;15.53;;;;;;;;;;5074423;28;20202;-77
2023/12/08 00:30:52;;;;;;;37.30;15.17;;;;;;;;;;5081418;28;20203;-75
2023/12/08 00:33:18;;;;;;;39.30;15.70;;;;;;;;;;5067263;28;20323;-75
2023/12/08 00:35:44;;;;;;;42.40;14.50;;;;;;;;;;5074200;28;20202;-76
2023/12/08 00:38:11;;;;;;;35.60;15.60;;;;;;;;;;5072307;28;20206;-76
2023/12/08 00:40:37;;;;;;;34.27;16.47;;;;;;;;;;5080612;28;20225;-77
2023/12/08 00:43:03;;;;;;;37.53;15.37;;;;;;;;;;5077239;28;20504;-78
2023/12/08 00:45:29;;;;;;;35.30;14.33;;;;;;;;;;5074264;28;20245;-76
2023/12/08 00:47:55;;;;;;;36.57;15.57;;;;;;;;;;5057291;28;20178;-77
2023/12/08 00:50:21;;;;;;;35.43;16.17;;;;;;;;;;5076039;28;20207;-75
2023/12/08 00:52:47;;;;;;;38.80;15.10;;;;;;;;;;5079864;28;20202;-76
2023/12/08 00:55:13;;;;;;;38.47;16.10;;;;;;;;;;5053444;28;20636;-76
2023/12/08 00:57:39;;;;;;;36.53;15.73;;;;;;;;;;5071642;28;20219;-76
2023/12/08 01:00:05;;;;;;;40.50;17.07;;;;;;;;;;5076755;28;20191;-77
2023/12/08 01:02:31;;;;;;;36.17;15.83;;;;;;;;;;5055393;28;20305;-77
2023/12/08 01:04:57;;;;;;;38.77;15.37;;;;;;;;;;5077235;28;20289;-77
2023/12/08 01:07:23;;;;;;;37.03;13.47;;;;;;;;;;5073750;28;20210;-75
2023/12/08 01:09:49;;;;;;;40.17;17.47;;;;;;;;;;5073067;28;20207;-75
2023/12/08 01:12:16;;;;;;;40.70;16.33;;;;;;;;;;5056107;28;20264;-77
2023/12/08 01:14:42;;;;;;;34.53;15.30;;;;;;;;;;5076492;28;20316;-77
2023/12/08 01:17:08;;;;;;;38.20;15.37;;;;;;;;;;5075009;28;20210;-77
2023/12/08 01:19:34;;;;;;;36.07;15.97;;;;;;;;;;5077523;28;20718;-76
2023/12/08 01:22:00;;;;;;;40.57;16.30;;;;;;;;;;5062479;28;20207;-77
2023/12/08 01:24:26;;;;;;;40.23;16.57;;;;;;;;;;5075155;28;20242;-77
2023/12/08 01:26:52;;;;;;;44.50;16.50;;;;;;;;;;5076076;28;20538;-77
2023/12/08 01:29:18;;;;;;;35.77;16.17;;;;;;;;;;5073293;28;20289;-77
2023/12/08 01:31:45;;;;;;;42.17;16.90;;;;;;;;;;5072539;28;20560;-77
2023/12/08 01:34:11;;;;;;;39.63;16.53;;;;;;;;;;5056097;28;20233;-77
2023/12/08 01:36:37;;;;;;;42.60;17.40;;;;;;;;;;5073744;28;20879;-77
2023/12/08 01:39:03;;;;;;;35.80;14.40;;;;;;;;;;5078017;28;20181;-77
2023/12/08 01:41:29;;;;;;;34.53;15.70;;;;;;;;;;5059086;28;20219;-77
2023/12/08 01:43:55;;;;;;;35.87;15.93;;;;;;;;;;5075163;28;20260;-77
2023/12/08 01:46:21;;;;;;;37.30;15.80;;;;;;;;;;5073080;28;20575;-77
2023/12/08 01:48:48;;;;;;;39.53;16.37;;;;;;;;;;5069462;28;20216;-77
2023/12/08 01:51:15;;;;;;;40.33;15.60;;;;;;;;;;5075644;28;20233;-77
2023/12/08 01:53:41;;;;;;;45.63;16.47;;;;;;;;;;5071853;28;20241;-77
2023/12/08 01:56:08;;;;;;;37.33;16.07;;;;;;;;;;5076021;28;20262;-77
2023/12/08 01:58:34;;;;;;;39.50;15.30;;;;;;;;;;5074221;28;20213;-77
2023/12/08 02:01:06;;;;;;;39.10;16.20;;;;;;;;;;5059247;28;20226;-76
2023/12/08 02:03:35;;;;;;;40.90;16.43;;;;;;;;;;5072806;28;20702;-77
2023/12/08 02:06:01;;;;;;;35.37;14.90;;;;;;;;;;5057293;28;20680;-76
2023/12/08 02:08:27;;;;;;;41.57;15.67;;;;;;;;;;5073810;28;20725;-75
2023/12/08 02:10:54;;;;;;;43.10;16.37;;;;;;;;;;5061390;28;20206;-77
2023/12/08 02:13:20;;;;;;;38.70;15.47;;;;;;;;;;5072913;28;20207;-77
2023/12/08 02:15:47;;;;;;;39.47;16.10;;;;;;;;;;5078443;28;20231;-77
2023/12/08 02:18:14;;;;;;;32.37;14.00;;;;;;;;;;5074559;28;20179;-77
2023/12/08 02:20:41;;;;;;;38.87;15.10;;;;;;;;;;5058849;28;20213;-78
2023/12/08 02:23:07;;;;;;;38.70;15.07;;;;;;;;;;5073836;28;20205;-77
2023/12/08 02:25:34;;;;;;;33.97;15.10;;;;;;;;;;5073770;28;20327;-77
2023/12/08 02:28:01;;;;;;;39.00;15.43;;;;;;;;;;5072781;28;20606;-78
2023/12/08 02:30:27;;;;;;;38.20;15.73;;;;;;;;;;5060818;28;20715;-77
2023/12/08 02:33:19;;;;;;;37.23;15.00;;;;;;;;;;5076282;28;20184;-78
2023/12/08 02:35:46;;;;;;;37.87;15.77;;;;;;;;;;5068195;28;20222;-77
2023/12/08 02:38:15;;;;;;;40.03;15.70;;;;;;;;;;5055355;28;20207;-77
2023/12/08 02:40:42;;;;;;;39.00;14.90;;;;;;;;;;5073702;28;20218;-77
2023/12/08 02:43:08;;;;;;;36.23;15.27;;;;;;;;;;5071215;28;20709;-77
2023/12/08 02:45:34;;;;;;;37.93;16.33;;;;;;;;;;5068407;28;20249;-78
2023/12/08 02:48:00;;;;;;;43.33;16.33;;;;;;;;;;5071266;28;20203;-78
2023/12/08 02:50:26;;;;;;;38.13;17.07;;;;;;;;;;5070550;28;20321;-76
2023/12/08 02:52:52;;;;;;;38.23;15.10;;;;;;;;;;5056599;28;20218;-76
2023/12/08 02:55:18;;;;;;;41.37;15.97;;;;;;;;;;5070966;28;20217;-77
2023/12/08 02:57:44;;;;;;;40.53;16.73;;;;;;;;;;5072750;28;20221;-76
2023/12/08 03:00:10;;;;;;;42.90;16.67;;;;;;;;;;5073400;28;20599;-77
2023/12/08 03:02:37;;;;;;;39.37;15.50;;;;;;;;;;5075357;28;20552;-77
2023/12/08 03:05:03;;;;;;;38.50;16.00;;;;;;;;;;5070577;28;20617;-77
2023/12/08 03:07:29;;;;;;;38.73;15.77;;;;;;;;;;5061435;28;20689;-77
2023/12/08 03:09:55;;;;;;;36.53;16.07;;;;;;;;;;5080353;28;20214;-77
2023/12/08 03:12:21;;;;;;;37.97;15.27;;;;;;;;;;5051617;28;20531;-77
2023/12/08 03:14:47;;;;;;;37.63;14.57;;;;;;;;;;5071523;28;20264;-77
2023/12/08 03:17:13;;;;;;;42.20;15.17;;;;;;;;;;5074998;28;20234;-77
2023/12/08 03:19:40;;;;;;;35.87;15.90;;;;;;;;;;5076713;28;20713;-78
2023/12/08 03:22:06;;;;;;;36.87;15.17;;;;;;;;;;5070175;28;20844;-77
2023/12/08 03:24:32;;;;;;;40.23;16.47;;;;;;;;;;5073629;28;20862;-78
2023/12/08 03:26:58;;;;;;;43.23;16.47;;;;;;;;;;5072756;28;20256;-77
2023/12/08 03:29:24;;;;;;;39.77;15.63;;;;;;;;;;5076148;28;20211;-78
2023/12/08 03:31:50;;;;;;;40.73;15.23;;;;;;;;;;5073665;28;20218;-77
2023/12/08 03:34:16;;;;;;;36.03;15.07;;;;;;;;;;5073244;28;20577;-78
2023/12/08 03:36:42;;;;;;;41.70;16.50;;;;;;;;;;5072457;28;20205;-78
2023/12/08 03:39:08;;;;;;;42.30;16.17;;;;;;;;;;5069724;28;20254;-78
2023/12/08 03:41:34;;;;;;;42.27;16.83;;;;;;;;;;5068978;28;20212;-78
2023/12/08 03:44:00;;;;;;;34.63;15.13;;;;;;;;;;5072677;28;20202;-78
2023/12/08 03:46:26;;;;;;;39.57;17.13;;;;;;;;;;5076299;28;20605;-78
2023/12/08 03:48:52;;;;;;;41.73;17.47;;;;;;;;;;5071225;28;20248;-77
2023/12/08 03:51:18;;;;;;;41.00;16.97;;;;;;;;;;5070832;28;20258;-77
2023/12/08 03:53:44;;;;;;;40.33;16.60;;;;;;;;;;5070496;28;20183;-79
2023/12/08 03:56:10;;;;;;;39.97;16.17;;;;;;;;;;5078791;28;20222;-78
2023/12/08 03:58:36;;;;;;;33.60;15.23;;;;;;;;;;5077647;28;20212;-77
2023/12/08 04:01:02;;;;;;;31.07;15.03;;;;;;;;;;5077380;28;20219;-78
2023/12/08 04:03:28;;;;;;;37.30;15.10;;;;;;;;;;5069444;28;20426;-78
2023/12/08 04:05:54;;;;;;;33.43;14.20;;;;;;;;;;5088857;28;20193;-79
2023/12/08 04:08:20;;;;;;;38.00;15.33;;;;;;;;;;5087599;28;20214;-78
2023/12/08 04:10:47;;;;;;;40.40;16.43;;;;;;;;;;5085498;28;20210;-76
2023/12/08 04:13:14;;;;;;;35.33;15.17;;;;;;;;;;5074154;28;20208;-77
2023/12/08 04:15:40;;;;;;;41.20;16.53;;;;;;;;;;5053991;28;20595;-76
2023/12/08 04:18:06;;;;;;;38.40;17.67;;;;;;;;;;5070358;28;20198;-77
2023/12/08 04:20:32;;;;;;;33.77;15.90;;;;;;;;;;5073599;28;20255;-76
2023/12/08 04:22:58;;;;;;;36.43;15.60;;;;;;;;;;5070944;28;20711;-76
2023/12/08 04:25:24;;;;;;;37.03;16.20;;;;;;;;;;5073756;28;20713;-76
2023/12/08 04:27:50;;;;;;;32.27;16.30;;;;;;;;;;5067785;28;20215;-76
2023/12/08 04:30:16;;;;;;;37.80;15.63;;;;;;;;;;5067694;28;20179;-76
2023/12/08 04:32:42;;;;;;;37.57;15.87;;;;;;;;;;5068755;28;20225;-76
2023/12/08 04:35:09;;;;;;;34.90;15.03;;;;;;;;;;5071688;28;20317;-76
2023/12/08 04:37:35;;;;;;;31.87;13.97;;;;;;;;;;5066648;28;20217;-78
2023/12/08 04:40:01;;;;;;;33.83;13.83;;;;;;;;;;5071209;28;20221;-76
2023/12/08 04:42:27;;;;;;;32.10;14.03;;;;;;;;;;5068399;28;20643;-76
2023/12/08 04:44:53;;;;;;;30.07;14.60;;;;;;;;;;5070763;28;20203;-77
2023/12/08 04:47:19;;;;;;;36.03;15.83;;;;;;;;;;5061158;28;20212;-77
2023/12/08 04:49:45;;;;;;;32.63;14.63;;;;;;;;;;5073449;28;20716;-76
2023/12/08 04:52:11;;;;;;;30.63;14.17;;;;;;;;;;5074371;28;20264;-76
2023/12/08 04:54:37;;;;;;;33.13;14.67;;;;;;;;;;5075596;28;20216;-76
2023/12/08 04:57:03;;;;;;;31.70;13.83;;;;;;;;;;5067705;28;20188;-76
2023/12/08 04:59:29;;;;;;;33.70;14.47;;;;;;;;;;5074974;28;20214;-77
2023/12/08 05:01:55;;;;;;;33.23;15.20;;;;;;;;;;5058971;28;20205;-77
2023/12/08 05:04:21;;;;;;;33.53;14.07;;;;;;;;;;5057398;28;20722;-77
2023/12/08 05:06:48;;;;;;;34.77;15.67;;;;;;;;;;5057579;28;20213;-76
2023/12/08 05:09:14;;;;;;;33.30;15.33;;;;;;;;;;5068217;28;20279;-78
2023/12/08 05:11:40;;;;;;;34.67;15.27;;;;;;;;;;5071736;28;20187;-77
2023/12/08 05:14:06;;;;;;;33.43;14.50;;;;;;;;;;5055234;28;20719;-78
2023/12/08 05:16:32;;;;;;;34.47;15.90;;;;;;;;;;5075111;28;20216;-77
2023/12/08 05:18:58;;;;;;;33.47;15.50;;;;;;;;;;5054939;28;20208;-77
2023/12/08 05:21:24;;;;;;;35.90;15.80;;;;;;;;;;5075903;28;20214;-77
2023/12/08 05:23:50;;;;;;;33.63;13.70;;;;;;;;;;5072233;28;20192;-75
2023/12/08 05:26:16;;;;;;;31.33;13.83;;;;;;;;;;5075122;28;20210;-78
2023/12/08 05:28:42;;;;;;;35.90;14.77;;;;;;;;;;5075237;28;20211;-78
2023/12/08 05:31:08;;;;;;;29.43;14.00;;;;;;;;;;5071040;28;20274;-77
2023/12/08 05:33:34;;;;;;;32.77;14.83;;;;;;;;;;5075360;28;20683;-77
2023/12/08 05:36:00;;;;;;;30.43;14.77;;;;;;;;;;5050753;28;20202;-77
2023/12/08 05:38:26;;;;;;;31.53;14.17;;;;;;;;;;5060107;28;20217;-76
2023/12/08 05:40:52;;;;;;;30.80;14.03;;;;;;;;;;5070692;28;20217;-78
2023/12/08 05:43:18;;;;;;;36.67;14.17;;;;;;;;;;5073226;28;20667;-78
2023/12/08 05:45:44;;;;;;;35.57;14.77;;;;;;;;;;5070047;28;22076;-76
2023/12/08 05:48:11;;;;;;;28.77;14.43;;;;;;;;;;5074144;28;20180;-78
2023/12/08 05:50:37;;;;;;;29.07;13.77;;;;;;;;;;5051123;28;20193;-77
2023/12/08 05:53:03;;;;;;;32.97;15.20;;;;;;;;;;5079606;28;20222;-77
2023/12/08 05:55:29;;;;;;;31.30;15.20;;;;;;;;;;5055973;28;20219;-77
2023/12/08 05:57:55;;;;;;;31.63;14.63;;;;;;;;;;5077509;28;20235;-77
2023/12/08 06:00:21;;;;;;;31.57;14.87;;;;;;;;;;5074948;28;20211;-77
2023/12/08 06:02:47;;;;;;;29.60;14.43;;;;;;;;;;5074386;28;20175;-77
2023/12/08 06:05:13;;;;;;;27.10;13.53;;;;;;;;;;5072609;28;20281;-77
2023/12/08 06:07:39;;;;;;;33.50;15.50;;;;;;;;;;5079669;28;20211;-77
2023/12/08 06:10:07;;;;;;;31.87;15.20;;;;;;;;;;5076698;28;20219;-77
2023/12/08 06:12:33;;;;;;;22.93;11.53;;;;;;;;;;5054551;28;20308;-77
2023/12/08 06:15:00;;;;;;;27.77;12.60;;;;;;;;;;5073322;28;20213;-76
2023/12/08 06:17:27;;;;;;;33.93;14.03;;;;;;;;;;5066027;28;20724;-77
2023/12/08 06:19:53;;;;;;;29.23;14.47;;;;;;;;;;5072673;28;20262;-76
2023/12/08 06:22:19;;;;;;;29.00;13.90;;;;;;;;;;5071129;28;20219;-78
2023/12/08 06:24:45;;;;;;;32.77;13.53;;;;;;;;;;5071976;28;20628;-77
2023/12/08 06:27:11;;;;;;;32.40;13.57;;;;;;;;;;5077194;28;20231;-79
2023/12/08 06:29:38;;;;;;;34.07;14.13;;;;;;;;;;5075816;28;20171;-78
2023/12/08 06:32:04;;;;;;;29.27;13.23;;;;;;;;;;5078934;28;20300;-78
2023/12/08 06:34:30;;;;;;;33.03;14.60;;;;;;;;;;5056676;28;20215;-79
2023/12/08 06:36:56;;;;;;;34.00;15.53;;;;;;;;;;5079243;28;20215;-78
2023/12/08 06:39:22;;;;;;;31.13;15.03;;;;;;;;;;5077580;28;20253;-78
2023/12/08 06:41:48;;;;;;;31.13;15.37;;;;;;;;;;5078374;28;20191;-74
2023/12/08 06:44:14;;;;;;;27.97;12.97;;;;;;;;;;5074256;28;20203;-77
2023/12/08 06:46:40;;;;;;;33.27;15.00;;;;;;;;;;5053635;28;20667;-78
2023/12/08 06:49:06;;;;;;;30.80;14.23;;;;;;;;;;5073039;28;20213;-79
2023/12/08 06:51:35;;;;;;;31.77;14.70;;;;;;;;;;5062055;28;20223;-77
2023/12/08 06:54:04;;;;;;;34.27;14.93;;;;;;;;;;5073721;28;20183;-77
2023/12/08 06:56:30;;;;;;;31.03;14.10;;;;;;;;;;5069885;28;20206;-76
2023/12/08 06:58:57;;;;;;;31.57;13.77;;;;;;;;;;5068925;28;20592;-78
2023/12/08 07:01:23;;;;;;;36.23;15.90;;;;;;;;;;5076523;28;20283;-79
2023/12/08 07:03:49;;;;;;;34.60;15.20;;;;;;;;;;5072274;28;20230;-77
2023/12/08 07:06:15;;;;;;;26.13;11.63;;;;;;;;;;5074622;28;20198;-78
2023/12/08 07:08:41;;;;;;;32.60;14.47;;;;;;;;;;5076869;28;20886;-78
2023/12/08 07:11:08;;;;;;;32.07;14.37;;;;;;;;;;5068848;28;20217;-76
2023/12/08 07:13:35;;;;;;;30.67;14.43;;;;;;;;;;5072164;28;20633;-78
2023/12/08 07:16:01;;;;;;;33.33;14.73;;;;;;;;;;5069376;28;20234;-77
2023/12/08 07:18:27;;;;;;;34.47;15.37;;;;;;;;;;5074346;28;20216;-77
2023/12/08 07:20:53;;;;;;;32.27;14.67;;;;;;;;;;5066702;28;20208;-77
2023/12/08 07:23:19;;;;;;;30.50;14.40;;;;;;;;;;5051480;28;20916;-75
2023/12/08 07:25:45;;;;;;;34.57;15.03;;;;;;;;;;5074038;28;20213;-77
2023/12/08 07:28:11;;;;;;;34.97;16.00;;;;;;;;;;5075073;28;20743;-78
2023/12/08 07:30:37;;;;;;;33.37;15.77;;;;;;;;;;5066005;28;20210;-79
2023/12/08 07:33:04;;;;;;;36.50;15.13;;;;;;;;;;5081287;28;20239;-77
2023/12/08 07:35:30;;;;;;;29.17;14.90;;;;;;;;;;5084731;28;20675;-78
2023/12/08 07:37:57;;;;;;;34.53;15.13;;;;;;;;;;5077659;28;20295;-77
2023/12/08 07:40:23;;;;;;;28.80;13.80;;;;;;;;;;5075725;28;20208;-79
2023/12/08 07:42:49;;;;;;;28.77;13.63;;;;;;;;;;5060387;28;20227;-77
2023/12/08 07:45:15;;;;;;;28.60;13.27;;;;;;;;;;5075739;28;20195;-76
2023/12/08 07:47:41;;;;;;;31.30;13.87;;;;;;;;;;5058077;28;20186;-74
2023/12/08 07:50:07;;;;;;;32.77;15.03;;;;;;;;;;5074186;28;20207;-74
2023/12/08 07:52:34;;;;;;;34.03;15.67;;;;;;;;;;5067561;28;20221;-75
2023/12/08 07:55:00;;;;;;;35.83;16.30;;;;;;;;;;5070065;28;20211;-75
2023/12/08 07:57:26;;;;;;;27.33;14.17;;;;;;;;;;5073788;28;20186;-74
2023/12/08 07:59:52;;;;;;;30.73;14.23;;;;;;;;;;5051650;28;20209;-75
2023/12/08 08:02:18;;;;;;;33.30;15.20;;;;;;;;;;5073557;28;20204;-76
2023/12/08 08:04:44;;;;;;;39.43;15.83;;;;;;;;;;5068742;28;20214;-76
2023/12/08 08:07:10;;;;;;;35.67;15.73;;;;;;;;;;5072004;28;20217;-76
2023/12/08 08:09:36;;;;;;;32.37;14.03;;;;;;;;;;5052777;28;20230;-76
2023/12/08 08:12:02;;;;;;;28.27;14.57;;;;;;;;;;5076599;28;20186;-76
2023/12/08 08:14:28;;;;;;;29.10;13.23;;;;;;;;;;5073576;28;20224;-76
2023/12/08 08:16:54;;;;;;;30.97;15.17;;;;;;;;;;5053608;28;20207;-76
2023/12/08 08:19:20;;;;;;;29.10;14.17;;;;;;;;;;5069236;28;20200;-77
2023/12/08 08:21:46;;;;;;;31.10;13.63;;;;;;;;;;5075151;28;20517;-76
2023/12/08 08:24:12;;;;;;;33.50;13.47;;;;;;;;;;5059597;28;20604;-76
2023/12/08 08:26:42;;;;;;;29.40;13.40;;;;;;;;;;5074957;28;20179;-77
2023/12/08 08:29:08;;;;;;;26.50;13.43;;;;;;;;;;5075416;28;20289;-76
2023/12/08 08:31:35;;;;;;;31.20;12.20;;;;;;;;;;5077205;28;20230;-76
2023/12/08 08:34:01;;;;;;;33.20;14.97;;;;;;;;;;5076308;28;20223;-76
2023/12/08 08:36:27;;;;;;;35.00;14.80;;;;;;;;;;5054738;28;20175;-76
2023/12/08 08:38:53;;;;;;;26.87;14.30;;;;;;;;;;5073283;28;20219;-75
2023/12/08 08:41:19;;;;;;;24.10;12.83;;;;;;;;;;5074865;28;20205;-76
2023/12/08 08:43:45;;;;;;;29.50;14.43;;;;;;;;;;5076130;28;20213;-78
2023/12/08 08:46:11;;;;;;;26.83;13.77;;;;;;;;;;5053916;28;20245;-76
2023/12/08 08:48:37;;;;;;;27.13;13.10;;;;;;;;;;5080716;28;20615;-76
2023/12/08 08:51:03;;;;;;;28.27;13.83;;;;;;;;;;5074058;28;20180;-77
2023/12/08 08:53:29;;;;;;;31.60;13.87;;;;;;;;;;5075206;28;20236;-77
2023/12/08 08:55:55;;;;;;;26.10;12.77;;;;;;;;;;5060123;28;20255;-76
2023/12/08 08:58:21;;;;;;;29.50;12.13;;;;;;;;;;5080878;28;20242;-77
2023/12/08 09:00:47;;;;;;;30.87;13.23;;;;;;;;;;5074853;28;20607;-77
2023/12/08 09:03:13;;;;;;;31.47;14.67;;;;;;;;;;5076412;28;20183;-77
2023/12/08 09:05:41;;;;;;;27.07;12.73;;;;;;;;;;5072407;28;20196;-76
2023/12/08 09:08:08;;;;;;;28.23;12.90;;;;;;;;;;5080182;28;20210;-77
2023/12/08 09:10:34;;;;;;;29.03;14.30;;;;;;;;;;5079808;28;20200;-77
2023/12/08 09:13:00;;;;;;;29.37;13.27;;;;;;;;;;5077356;28;20761;-77
2023/12/08 09:15:26;;;;;;;25.03;11.90;;;;;;;;;;5055078;28;20286;-77
2023/12/08 09:17:52;;;;;;;25.47;11.70;;;;;;;;;;5069336;28;20210;-76
2023/12/08 09:20:19;;;;;;;22.17;12.60;;;;;;;;;;5072428;28;20205;-77
2023/12/08 09:22:45;;;;;;;28.93;12.63;;;;;;;;;;5075931;28;20211;-77
2023/12/08 09:25:11;;;;;;;23.67;12.27;;;;;;;;;;5074349;28;20222;-75
2023/12/08 09:27:37;;;;;;;26.50;13.20;;;;;;;;;;5061651;28;20262;-77
2023/12/08 09:30:03;;;;;;;22.13;11.13;;;;;;;;;;5079964;28;20672;-77
2023/12/08 09:32:29;;;;;;;26.97;11.63;;;;;;;;;;5073973;28;20219;-76
2023/12/08 09:34:55;;;;;;;25.90;12.13;;;;;;;;;;5076960;28;20212;-77
2023/12/08 09:37:21;;;;;;;22.83;11.83;;;;;;;;;;5078087;28;20577;-76
2023/12/08 09:39:47;;;;;;;21.17;11.40;;;;;;;;;;5068624;28;20224;-77
2023/12/08 09:42:21;;;;;;;26.43;11.67;;;;;;;;;;5075431;28;20191;-78
2023/12/08 09:44:48;;;;;;;25.83;11.97;;;;;;;;;;5074656;28;20194;-77
2023/12/08 09:47:15;;;;;;;21.67;10.90;;;;;;;;;;5050976;28;20205;-78
2023/12/08 09:49:46;;;;;;;24.07;11.50;;;;;;;;;;5076124;28;20226;-77
2023/12/08 09:52:14;;;;;;;24.40;10.63;;;;;;;;;;5075770;28;20211;-77
2023/12/08 09:54:41;;;;;;;21.87;11.37;;;;;;;;;;5078442;28;20215;-78
2023/12/08 09:57:09;;;;;;;23.83;11.70;;;;;;;;;;5059237;28;20281;-77
2023/12/08 09:59:37;;;;;;;22.27;10.43;;;;;;;;;;5071405;28;20222;-78
2023/12/08 10:02:03;;;;;;;19.63;10.73;;;;;;;;;;5090126;28;20214;-80
2023/12/08 10:04:29;;;;;;;23.40;11.63;;;;;;;;;;5079925;28;20215;-80
2023/12/08 10:06:59;;;;;;;25.20;11.27;;;;;;;;;;5084029;28;20214;-81
2023/12/08 10:09:25;;;;;;;21.17;10.13;;;;;;;;;;5086096;28;20185;-81
2023/12/08 10:11:51;;;;;;;22.57;11.00;;;;;;;;;;5071570;28;20194;-80
2023/12/08 10:14:19;;;;;;;20.63;8.97;;;;;;;;;;5042049;28;20834;-77
2023/12/08 10:16:46;;;;;;;19.70;10.13;;;;;;;;;;5066331;28;20215;-76
2023/12/08 10:19:12;;;;;;;22.40;10.37;;;;;;;;;;5076958;28;20765;-76
2023/12/08 10:21:39;;;;;;;24.17;11.70;;;;;;;;;;5052856;28;20218;-74
2023/12/08 10:24:07;;;;;;;25.10;11.60;;;;;;;;;;5075938;28;20253;-74
2023/12/08 10:26:34;;;;;;;21.63;10.70;;;;;;;;;;5070153;28;20211;-75
2023/12/08 10:29:00;;;;;;;21.77;10.07;;;;;;;;;;5066067;28;20295;-78
2023/12/08 10:31:27;;;;;;;21.90;10.90;;;;;;;;;;5069322;28;20997;-75
2023/12/08 10:33:54;;;;;;;19.47;10.37;;;;;;;;;;5074442;28;20206;-74
2023/12/08 10:36:20;;;;;;;22.97;10.47;;;;;;;;;;5071797;28;20344;-73
2023/12/08 10:38:46;;;;;;;21.70;10.43;;;;;;;;;;5070758;28;20535;-75
2023/12/08 10:41:13;;;;;;;23.90;11.37;;;;;;;;;;5069409;28;20592;-76
2023/12/08 10:43:39;;;;;;;22.07;10.40;;;;;;;;;;5072703;28;20207;-76
2023/12/08 10:46:06;;;;;;;22.73;10.57;;;;;;;;;;5072847;28;20736;-74
2023/12/08 10:48:33;;;;;;;25.43;11.27;;;;;;;;;;5068914;28;20696;-74
2023/12/08 10:50:59;;;;;;;17.03;9.77;;;;;;;;;;5071722;28;20258;-75
2023/12/08 10:53:26;;;;;;;22.53;10.87;;;;;;;;;;5075686;28;20208;-79
2023/12/08 10:56:05;;;;;;;24.67;11.37;;;;;;;;;;5071827;28;20853;-79
2023/12/08 10:58:34;;;;;;;21.20;10.30;;;;;;;;;;5073804;28;20224;-78
2023/12/08 11:01:01;;;;;;;27.53;11.87;;;;;;;;;;5074756;28;20626;-80
2023/12/08 11:03:34;;;;;;;21.97;11.53;;;;;;;;;;5070542;28;20185;-78
2023/12/08 11:06:07;;;;;;;21.03;10.73;;;;;;;;;;5081835;28;20199;-78
2023/12/08 11:08:34;;;;;;;24.47;11.20;;;;;;;;;;5086085;28;20218;-73
2023/12/08 11:11:01;;;;;;;19.40;9.83;;;;;;;;;;5070180;28;20695;-74
2023/12/08 11:13:28;;;;;;;23.33;11.10;;;;;;;;;;5069152;28;20211;-74
2023/12/08 11:16:10;;;;;;;24.43;11.57;;;;;;;;;;5050330;28;20716;-74
2023/12/08 11:18:38;;;;;;;20.23;10.87;;;;;;;;;;5071710;28;20217;-77
2023/12/08 11:21:08;;;;;;;21.90;10.93;;;;;;;;;;5069743;28;20208;-73
2023/12/08 11:23:34;;;;;;;24.07;11.27;;;;;;;;;;5051744;28;20273;-73
2023/12/08 11:26:13;;;;;;;24.90;11.93;;;;;;;;;;5074074;28;20213;-71
2023/12/08 11:28:57;;;;;;;23.30;11.27;;;;;;;;;;5070914;28;20712;-72
2023/12/08 11:31:33;;;;;;;22.27;10.20;;;;;;;;;;5071222;28;20556;-69
2023/12/08 11:34:12;;;;;;;21.40;10.83;;;;;;;;;;5063198;28;20741;-71
2023/12/08 11:36:47;;;;;;;24.20;11.20;;;;;;;;;;5073480;28;20225;-76
2023/12/08 11:39:31;;;;;;;23.97;11.47;;;;;;;;;;5056750;28;20258;-78
2023/12/08 11:41:57;;;;;;;21.63;11.03;;;;;;;;;;5065919;28;20716;-76
2023/12/08 11:44:24;;;;;;;24.93;11.80;;;;;;;;;;5066862;28;20225;-76
2023/12/08 11:46:55;;;;;;;19.87;10.43;;;;;;;;;;5066652;28;20199;-76
2023/12/08 11:49:21;;;;;;;22.73;10.50;;;;;;;;;;5069039;28;20640;-76
2023/12/08 11:52:05;;;;;;;20.23;10.03;;;;;;;;;;5067572;28;20282;-77
2023/12/08 11:54:50;;;;;;;21.53;10.87;;;;;;;;;;5064358;28;20219;-76
2023/12/08 11:57:19;;;;;;;22.50;11.20;;;;;;;;;;5053141;28;20183;-72
2023/12/08 11:59:45;;;;;;;19.70;9.73;;;;;;;;;;5072820;28;20206;-71
2023/12/08 12:02:12;;;;;;;23.97;12.27;;;;;;;;;;5073404;28;20700;-69
2023/12/08 12:04:38;;;;;;;18.33;9.87;;;;;;;;;;5075550;28;20698;-72
2023/12/08 12:07:07;;;;;;;21.97;10.40;;;;;;;;;;5057317;28;20206;-72
2023/12/08 12:09:33;;;;;;;17.87;10.50;;;;;;;;;;5078590;28;20213;-74
2023/12/08 12:12:02;;;;;;;20.93;10.37;;;;;;;;;;5071698;28;20205;-72
2023/12/08 12:14:29;;;;;;;17.73;10.30;;;;;;;;;;5054117;28;20227;-73
2023/12/08 12:16:55;;;;;;;22.20;10.37;;;;;;;;;;5069223;28;20274;-76
2023/12/08 12:19:22;;;;;;;20.77;10.60;;;;;;;;;;5073323;28;20300;-73
2023/12/08 12:21:47;;;;;;;18.13;9.67;;;;;;;;;;5065342;28;20636;-74
2023/12/08 12:24:13;;;;;;;18.67;9.00;;;;;;;;;;5073776;28;20186;-75
2023/12/08 12:26:39;;;;;;;21.27;10.47;;;;;;;;;;5073134;28;20197;-74
2023/12/08 12:29:05;;;;;;;19.80;9.10;;;;;;;;;;5063981;28;20293;-75
2023/12/08 12:31:31;;;;;;;19.83;9.87;;;;;;;;;;5063982;28;20633;-73
2023/12/08 12:33:57;;;;;;;20.93;9.90;;;;;;;;;;5076436;28;20207;-73
2023/12/08 12:36:23;;;;;;;24.57;10.93;;;;;;;;;;5074386;28;20177;-72
2023/12/08 12:38:52;;;;;;;21.17;11.30;;;;;;;;;;5074423;28;20180;-75
2023/12/08 12:41:23;;;;;;;20.20;9.60;;;;;;;;;;5071005;28;20211;-72
2023/12/08 12:43:49;;;;;;;20.43;10.27;;;;;;;;;;5074949;28;20692;-74
2023/12/08 12:46:15;;;;;;;19.07;9.90;;;;;;;;;;5070488;28;20215;-73
2023/12/08 12:48:41;;;;;;;17.87;9.77;;;;;;;;;;5070041;28;20568;-73
2023/12/08 12:51:07;;;;;;;19.43;10.37;;;;;;;;;;5076135;28;20174;-74
2023/12/08 12:53:42;;;;;;;15.03;9.13;;;;;;;;;;5070704;28;20219;-75
2023/12/08 12:56:09;;;;;;;18.77;9.20;;;;;;;;;;5076506;28;20939;-77
2023/12/08 12:58:35;;;;;;;18.90;9.70;;;;;;;;;;5070112;28;20243;-77
2023/12/08 13:01:09;;;;;;;22.23;10.80;;;;;;;;;;5071733;28;20226;-72
2023/12/08 13:03:35;;;;;;;16.60;9.23;;;;;;;;;;5077404;28;20300;-73
2023/12/08 13:06:01;;;;;;;15.97;8.83;;;;;;;;;;5074976;28;20336;-72
2023/12/08 13:08:27;;;;;;;19.70;9.70;;;;;;;;;;5080828;28;20299;-74
2023/12/08 13:10:53;;;;;;;21.07;10.87;;;;;;;;;;5080411;28;20213;-74
2023/12/08 13:13:19;;;;;;;17.93;9.03;;;;;;;;;;5078745;28;20214;-74
2023/12/08 13:15:46;;;;;;;17.77;9.47;;;;;;;;;;5076664;28;20593;-76
2023/12/08 13:18:12;;;;;;;22.33;11.13;;;;;;;;;;5060341;28;20970;-75
2023/12/08 13:20:38;;;;;;;20.27;11.03;;;;;;;;;;5077553;28;20206;-75
2023/12/08 13:23:04;;;;;;;18.57;10.37;;;;;;;;;;5079535;28;20702;-76
2023/12/08 13:25:30;;;;;;;21.40;10.50;;;;;;;;;;5081484;28;20220;-74
2023/12/08 13:27:57;;;;;;;20.30;10.13;;;;;;;;;;5073950;28;20207;-72
2023/12/08 13:30:23;;;;;;;24.17;10.43;;;;;;;;;;5075521;28;20215;-76
2023/12/08 13:32:49;;;;;;;24.40;11.53;;;;;;;;;;5068581;28;20206;-72
2023/12/08 13:35:15;;;;;;;20.47;10.93;;;;;;;;;;5075679;28;20311;-72
2023/12/08 13:37:42;;;;;;;24.50;10.80;;;;;;;;;;5076906;28;20207;-73
2023/12/08 13:40:11;;;;;;;19.17;9.37;;;;;;;;;;5073992;28;20218;-73
2023/12/08 13:42:37;;;;;;;17.07;10.30;;;;;;;;;;5060549;28;20596;-74
2023/12/08 13:45:04;;;;;;;23.17;11.57;;;;;;;;;;5055751;28;20265;-77
2023/12/08 13:47:30;;;;;;;21.97;10.53;;;;;;;;;;5069598;28;20210;-77
2023/12/08 13:49:57;;;;;;;22.57;11.33;;;;;;;;;;5057805;28;20222;-78
2023/12/08 13:52:23;;;;;;;22.20;11.03;;;;;;;;;;5070716;28;20217;-75
2023/12/08 13:54:49;;;;;;;23.30;10.73;;;;;;;;;;5071978;28;20207;-76
2023/12/08 13:57:15;;;;;;;24.63;10.83;;;;;;;;;;5072872;28;20545;-79
2023/12/08 13:59:41;;;;;;;22.03;10.27;;;;;;;;;;5077392;28;20189;-78
2023/12/08 14:02:07;;;;;;;19.43;10.13;;;;;;;;;;5075533;28;20198;-75
2023/12/08 14:04:33;;;;;;;23.13;10.87;;;;;;;;;;5073927;28;20223;-74
2023/12/08 14:07:01;;;;;;;20.60;10.03;;;;;;;;;;5075593;28;20204;-75
2023/12/08 14:09:27;;;;;;;27.07;11.20;;;;;;;;;;5056009;28;20711;-74
2023/12/08 14:11:53;;;;;;;24.70;11.87;;;;;;;;;;5076488;28;20183;-75
2023/12/08 14:14:19;;;;;;;21.57;11.40;;;;;;;;;;5064001;28;20226;-74
2023/12/08 14:16:45;;;;;;;19.73;10.43;;;;;;;;;;5075681;28;20720;-76